createdAt,value
2023-01-19T00:01:42.764Z,91.90
2023-01-19T00:04:10.651Z,92.00
2023-01-19T00:06:38.353Z,92.00
2023-01-19T00:09:06.079Z,92.00
2023-01-19T00:11:33.797Z,92.00
2023-01-19T00:14:01.525Z,92.00
2023-01-19T00:16:30.790Z,92.10
2023-01-19T00:18:58.503Z,92.10
2023-01-19T00:21:26.373Z,92.10
2023-01-19T00:23:54.110Z,92.00
2023-01-19T00:26:22.974Z,92.10
2023-01-19T00:28:51.036Z,92.10
2023-01-19T00:31:20.549Z,92.10
2023-01-19T00:33:52.478Z,92.10
2023-01-19T00:36:20.627Z,92.10
2023-01-19T00:38:48.484Z,92.10
2023-01-19T00:41:16.323Z,92.10
2023-01-19T00:43:44.178Z,92.10
2023-01-19T00:46:11.953Z,92.10
2023-01-19T00:48:39.800Z,92.10
2023-01-19T00:51:08.878Z,92.10
2023-01-19T00:53:36.634Z,92.10
2023-01-19T00:56:04.443Z,92.10
2023-01-19T00:58:32.154Z,92.10
2023-01-19T01:01:03.580Z,92.10
2023-01-19T01:03:31.695Z,92.10
2023-01-19T01:06:00.167Z,92.40
2023-01-19T01:08:29.222Z,92.40
2023-01-19T01:10:57.604Z,92.20
2023-01-19T01:13:27.614Z,92.10
2023-01-19T01:15:57.101Z,92.10
2023-01-19T01:18:25.775Z,92.10
2023-01-19T01:20:56.062Z,92.20
2023-01-19T01:23:23.979Z,92.20
2023-01-19T01:25:53.146Z,92.20
2023-01-19T01:28:20.895Z,92.20
2023-01-19T01:30:48.988Z,92.20
2023-01-19T01:33:39.863Z,92.20
2023-01-19T01:36:05.522Z,92.20
2023-01-19T01:38:33.403Z,92.20
2023-01-19T01:41:02.480Z,92.20
2023-01-19T01:43:47.091Z,92.20
2023-01-19T01:46:17.227Z,92.20
2023-01-19T01:48:50.686Z,92.50
2023-01-19T01:51:26.624Z,92.20
2023-01-19T01:54:07.677Z,92.20
2023-01-19T01:56:39.918Z,92.20
2023-01-19T01:59:11.850Z,92.20
2023-01-19T02:01:57.715Z,92.20
2023-01-19T02:04:26.213Z,92.20
2023-01-19T02:07:11.805Z,92.20
2023-01-19T02:09:57.197Z,92.20
2023-01-19T02:12:44.082Z,92.30
2023-01-19T02:15:20.257Z,92.20
2023-01-19T02:17:48.748Z,92.50
2023-01-19T02:20:17.614Z,92.20
2023-01-19T02:22:51.021Z,92.20
2023-01-19T02:25:20.963Z,92.20
2023-01-19T02:27:50.092Z,92.20
2023-01-19T02:30:19.401Z,92.20
2023-01-19T02:32:47.325Z,92.20
2023-01-19T02:35:15.254Z,92.20
2023-01-19T02:37:44.792Z,92.20
2023-01-19T02:40:16.028Z,92.30
2023-01-19T02:42:47.770Z,92.30
2023-01-19T02:45:19.030Z,92.30
2023-01-19T02:47:49.785Z,92.30
2023-01-19T02:50:39.061Z,92.30
2023-01-19T02:53:20.520Z,92.30
2023-01-19T02:55:54.611Z,92.30
2023-01-19T02:58:32.904Z,92.30
2023-01-19T03:01:12.720Z,92.30
2023-01-19T03:03:48.522Z,92.30
2023-01-19T03:06:29.385Z,92.30
2023-01-19T03:09:03.689Z,92.30
2023-01-19T03:11:35.199Z,92.30
2023-01-19T03:14:09.857Z,92.30
2023-01-19T03:16:42.099Z,92.30
2023-01-19T03:19:15.918Z,92.30
2023-01-19T03:21:48.871Z,92.30
2023-01-19T03:24:19.351Z,92.30
2023-01-19T03:26:50.287Z,92.30
2023-01-19T03:29:21.772Z,92.30
2023-01-19T03:31:51.927Z,92.30
2023-01-19T03:34:23.945Z,92.30
2023-01-19T03:36:54.329Z,92.30
2023-01-19T03:39:24.291Z,92.30
2023-01-19T03:41:55.126Z,92.30
2023-01-19T03:44:25.324Z,92.30
2023-01-19T03:46:53.459Z,92.40
2023-01-19T03:49:21.360Z,92.30
2023-01-19T03:51:49.225Z,92.30
2023-01-19T03:54:16.955Z,92.30
2023-01-19T03:56:44.797Z,92.30
2023-01-19T03:59:12.558Z,92.30
2023-01-19T04:01:41.708Z,92.30
2023-01-19T04:04:09.550Z,92.30
2023-01-19T04:06:37.527Z,92.30
2023-01-19T04:09:05.315Z,92.30
2023-01-19T04:11:33.128Z,92.30
2023-01-19T04:14:01.612Z,92.30
2023-01-19T04:16:29.465Z,92.30
2023-01-19T04:18:58.648Z,92.30
2023-01-19T04:21:26.698Z,92.30
2023-01-19T04:23:54.522Z,92.30
2023-01-19T04:26:22.370Z,92.30
2023-01-19T04:28:50.089Z,92.30
2023-01-19T04:31:19.416Z,92.40
2023-01-19T04:33:47.549Z,92.40
2023-01-19T04:36:16.670Z,92.30
2023-01-19T04:38:44.400Z,92.40
2023-01-19T04:41:12.212Z,92.40
2023-01-19T04:43:39.921Z,92.40
2023-01-19T04:46:07.762Z,92.40
2023-01-19T04:48:35.594Z,92.40
2023-01-19T04:51:03.519Z,92.40
2023-01-19T04:53:32.824Z,92.40
2023-01-19T04:56:01.029Z,92.40
2023-01-19T04:58:28.816Z,92.40
2023-01-19T05:00:56.540Z,92.40
2023-01-19T05:03:25.784Z,92.40
2023-01-19T05:05:54.320Z,92.40
2023-01-19T05:08:22.049Z,92.40
2023-01-19T05:10:51.703Z,92.40
2023-01-19T05:13:19.448Z,92.40
2023-01-19T05:15:47.308Z,92.40
2023-01-19T05:18:15.124Z,92.40
2023-01-19T05:20:42.985Z,92.40
2023-01-19T05:23:10.708Z,92.40
2023-01-19T05:25:38.401Z,92.40
2023-01-19T05:28:07.961Z,92.40
2023-01-19T05:30:36.112Z,92.40
2023-01-19T05:33:04.009Z,92.40
2023-01-19T05:35:36.164Z,92.40
2023-01-19T05:38:04.903Z,92.40
2023-01-19T05:40:33.316Z,92.40
2023-01-19T05:43:01.771Z,92.40
2023-01-19T05:45:31.143Z,92.40
2023-01-19T05:47:58.898Z,92.40
2023-01-19T05:50:26.799Z,92.40
2023-01-19T05:52:54.577Z,92.40
2023-01-19T05:55:23.077Z,92.40
2023-01-19T05:57:50.946Z,92.40
2023-01-19T06:00:20.331Z,92.40
2023-01-19T06:02:49.772Z,92.40
2023-01-19T06:05:17.708Z,92.40
2023-01-19T06:07:45.493Z,92.40
2023-01-19T06:10:13.290Z,92.40
2023-01-19T06:12:41.843Z,92.40
2023-01-19T06:15:10.436Z,92.40
2023-01-19T06:17:38.178Z,92.40
2023-01-19T06:20:08.435Z,92.40
2023-01-19T06:22:36.292Z,92.40
2023-01-19T06:25:04.477Z,92.40
2023-01-19T06:27:32.271Z,92.40
2023-01-19T06:30:00.207Z,92.40
2023-01-19T06:32:28.182Z,92.40
2023-01-19T06:34:55.941Z,92.40
2023-01-19T06:37:26.760Z,92.40
2023-01-19T06:39:54.531Z,92.30
2023-01-19T06:42:22.407Z,92.40
2023-01-19T06:44:50.186Z,92.30
2023-01-19T06:47:18.031Z,92.30
2023-01-19T06:49:45.749Z,92.30
2023-01-19T06:52:16.020Z,92.30
2023-01-19T06:54:45.595Z,92.30
2023-01-19T06:57:13.887Z,92.30
2023-01-19T06:59:41.842Z,92.30
2023-01-19T07:02:26.400Z,92.40
2023-01-19T07:04:56.247Z,92.30
2023-01-19T07:07:24.144Z,92.30
2023-01-19T07:09:53.786Z,92.30
2023-01-19T07:12:22.205Z,92.30
2023-01-19T07:14:50.438Z,92.30
2023-01-19T07:17:18.473Z,92.30
2023-01-19T07:19:47.304Z,92.30
2023-01-19T07:22:15.317Z,92.40
2023-01-19T07:24:43.590Z,92.40
2023-01-19T07:27:12.825Z,92.40
2023-01-19T07:29:40.612Z,92.40
2023-01-19T07:32:08.475Z,92.40
2023-01-19T07:34:36.472Z,92.40
2023-01-19T07:37:04.994Z,92.40
2023-01-19T07:39:32.872Z,92.40
2023-01-19T07:42:00.630Z,92.40
2023-01-19T07:44:29.677Z,92.40
2023-01-19T07:46:57.441Z,92.40
2023-01-19T07:49:26.181Z,92.40
2023-01-19T07:51:56.226Z,92.40
2023-01-19T07:54:24.172Z,92.40
2023-01-19T07:56:54.850Z,92.40
2023-01-19T07:59:22.984Z,92.40
2023-01-19T08:01:53.418Z,92.40
2023-01-19T08:04:21.386Z,92.40
2023-01-19T08:06:49.297Z,92.40
2023-01-19T08:09:17.922Z,92.50
2023-01-19T08:11:45.735Z,92.50
2023-01-19T08:14:13.752Z,92.50
2023-01-19T08:16:41.567Z,92.50
2023-01-19T08:19:10.683Z,92.50
2023-01-19T08:21:38.930Z,92.50
2023-01-19T08:24:07.302Z,92.50
2023-01-19T08:26:36.499Z,92.50
2023-01-19T08:29:06.746Z,92.50
2023-01-19T08:31:34.749Z,92.50
2023-01-19T08:34:02.752Z,92.50
2023-01-19T08:36:31.872Z,92.50
2023-01-19T08:38:59.606Z,92.50
2023-01-19T08:41:27.574Z,92.60
2023-01-19T08:43:55.494Z,92.60
2023-01-19T08:46:23.203Z,92.70
2023-01-19T08:48:51.223Z,93.10
2023-01-19T08:51:19.689Z,92.80
2023-01-19T08:53:48.996Z,92.80
2023-01-19T08:56:18.545Z,92.80
2023-01-19T08:58:59.493Z,93.10
2023-01-19T09:01:36.960Z,92.80
2023-01-19T09:04:05.131Z,92.80
2023-01-19T09:06:32.827Z,92.80
2023-01-19T09:09:01.990Z,92.80
2023-01-19T09:11:30.728Z,92.80
2023-01-19T09:13:58.497Z,92.80
2023-01-19T09:16:27.001Z,92.80
2023-01-19T09:18:54.913Z,92.80
2023-01-19T09:21:22.686Z,92.80
2023-01-19T09:23:50.534Z,92.80
2023-01-19T09:26:22.179Z,92.80
2023-01-19T09:28:50.023Z,92.80
2023-01-19T09:31:17.932Z,92.70
2023-01-19T09:33:45.735Z,92.80
2023-01-19T09:36:13.465Z,92.80
2023-01-19T09:38:41.197Z,92.80
2023-01-19T09:41:17.532Z,92.80
2023-01-19T09:43:50.698Z,92.80
2023-01-19T09:46:22.080Z,92.80
2023-01-19T09:48:53.491Z,92.80
2023-01-19T09:51:23.992Z,92.80
2023-01-19T09:53:57.854Z,92.90
2023-01-19T09:56:26.113Z,92.90
2023-01-19T09:58:55.262Z,92.90
2023-01-19T10:01:37.241Z,92.90
2023-01-19T10:04:27.847Z,92.90
2023-01-19T10:07:20.769Z,93.00
2023-01-19T10:10:08.054Z,93.00
2023-01-19T10:12:45.065Z,93.00
2023-01-19T10:15:26.103Z,93.00
2023-01-19T10:18:14.003Z,92.90
2023-01-19T10:20:45.615Z,92.80
2023-01-19T10:23:26.149Z,92.70
2023-01-19T10:25:54.759Z,92.70
2023-01-19T10:28:26.606Z,92.70
2023-01-19T10:30:56.894Z,92.80
2023-01-19T10:33:25.331Z,92.90
2023-01-19T10:35:53.304Z,92.90
2023-01-19T10:38:22.346Z,92.90
2023-01-19T10:40:57.009Z,93.00
2023-01-19T10:43:37.499Z,93.10
2023-01-19T10:46:15.289Z,93.10
2023-01-19T10:48:44.104Z,93.00
2023-01-19T10:51:13.113Z,93.10
2023-01-19T10:53:43.544Z,93.10
2023-01-19T10:56:17.794Z,93.10
2023-01-19T10:58:45.561Z,93.10
2023-01-19T11:01:17.424Z,93.20
2023-01-19T11:03:45.591Z,93.10
2023-01-19T11:06:22.947Z,93.20
2023-01-19T11:08:52.525Z,93.20
2023-01-19T11:11:21.345Z,93.20
2023-01-19T11:14:05.698Z,93.20
2023-01-19T11:16:38.064Z,93.20
2023-01-19T11:19:05.944Z,93.20
2023-01-19T11:21:34.212Z,93.20
2023-01-19T11:24:05.516Z,93.20
2023-01-19T11:26:36.067Z,93.20
2023-01-19T11:29:05.993Z,93.40
2023-01-19T11:31:36.702Z,93.50
2023-01-19T11:34:06.940Z,93.50
2023-01-19T11:36:36.620Z,93.50
2023-01-19T11:39:23.567Z,93.40
2023-01-19T11:41:54.671Z,93.40
2023-01-19T11:44:25.528Z,93.30
2023-01-19T11:46:58.686Z,93.20
2023-01-19T11:49:36.144Z,93.30
2023-01-19T11:52:06.570Z,93.20
2023-01-19T11:54:37.246Z,93.30
2023-01-19T11:57:13.264Z,93.40
2023-01-19T11:59:41.037Z,93.30
2023-01-19T12:02:23.803Z,93.30
2023-01-19T12:04:54.103Z,93.30
2023-01-19T12:07:27.178Z,93.20
2023-01-19T12:09:59.653Z,93.20
2023-01-19T12:12:31.487Z,93.20
2023-01-19T12:15:04.294Z,93.20
2023-01-19T12:17:37.592Z,93.20
2023-01-19T12:20:21.835Z,93.10
2023-01-19T12:22:55.714Z,93.20
2023-01-19T12:25:26.222Z,93.20
2023-01-19T12:27:54.837Z,93.10
2023-01-19T12:30:26.033Z,93.20
2023-01-19T12:33:22.439Z,93.20
2023-01-19T12:36:00.910Z,93.10
2023-01-19T12:38:48.384Z,93.10
2023-01-19T12:41:28.956Z,93.10
2023-01-19T12:44:19.100Z,93.10
2023-01-19T12:46:49.211Z,93.10
2023-01-19T12:49:25.292Z,93.10
2023-01-19T12:51:55.809Z,93.10
2023-01-19T12:54:31.466Z,93.10
2023-01-19T12:57:02.863Z,93.10
2023-01-19T12:59:32.135Z,93.10
2023-01-19T13:02:34.204Z,93.10
2023-01-19T13:05:20.005Z,93.10
2023-01-19T13:08:20.067Z,93.00
2023-01-19T13:11:19.915Z,93.00
2023-01-19T13:14:27.443Z,93.00
2023-01-19T13:17:05.435Z,93.00
2023-01-19T13:20:08.874Z,92.90
2023-01-19T13:23:14.747Z,93.10
2023-01-19T13:25:45.829Z,93.00
2023-01-19T13:28:16.947Z,93.10
2023-01-19T13:30:55.014Z,93.10
2023-01-19T13:33:25.043Z,93.10
2023-01-19T13:35:55.211Z,93.10
2023-01-19T13:38:25.595Z,93.10
2023-01-19T13:40:55.777Z,93.00
2023-01-19T13:43:29.159Z,92.90
2023-01-19T13:45:57.474Z,92.90
2023-01-19T13:48:26.541Z,92.90
2023-01-19T13:50:59.695Z,92.90
2023-01-19T13:53:30.424Z,92.90
2023-01-19T13:56:09.353Z,92.90
2023-01-19T13:58:37.137Z,92.90
2023-01-19T14:01:05.002Z,92.90
2023-01-19T14:03:33.801Z,92.90
2023-01-19T14:06:01.839Z,93.00
2023-01-19T14:08:32.816Z,93.00
2023-01-19T14:11:02.944Z,93.00
2023-01-19T14:13:32.167Z,93.00
2023-01-19T14:16:01.646Z,92.90
2023-01-19T14:18:31.057Z,92.90
2023-01-19T14:21:02.056Z,92.80
2023-01-19T14:23:46.932Z,92.90
2023-01-19T14:26:57.196Z,92.90
2023-01-19T14:29:27.649Z,92.90
2023-01-19T14:32:16.472Z,92.90
2023-01-19T14:34:45.861Z,92.90
2023-01-19T14:37:22.644Z,92.70
2023-01-19T14:39:53.518Z,92.70
2023-01-19T14:42:25.782Z,92.70
2023-01-19T14:44:55.961Z,92.60
2023-01-19T14:47:31.244Z,92.60
2023-01-19T14:50:04.900Z,92.60
2023-01-19T14:52:35.886Z,92.60
2023-01-19T14:55:08.156Z,92.50
2023-01-19T14:57:37.085Z,92.50
2023-01-19T15:00:17.393Z,92.50
2023-01-19T15:02:45.559Z,92.40
2023-01-19T15:05:13.762Z,92.40
2023-01-19T15:07:45.080Z,92.40
2023-01-19T15:10:19.148Z,92.40
2023-01-19T15:12:47.107Z,92.30
2023-01-19T15:15:16.988Z,92.30
2023-01-19T15:17:45.070Z,92.30
2023-01-19T15:20:16.946Z,92.30
2023-01-19T15:22:45.185Z,92.20
2023-01-19T15:25:19.223Z,92.20
2023-01-19T15:27:47.802Z,92.20
2023-01-19T15:30:21.176Z,92.20
2023-01-19T15:32:48.954Z,92.20
2023-01-19T15:35:31.791Z,92.20
2023-01-19T15:37:59.523Z,92.20
2023-01-19T15:40:28.777Z,92.20
2023-01-19T15:42:56.591Z,92.20
2023-01-19T15:45:43.307Z,92.20
2023-01-19T15:48:12.672Z,92.20
2023-01-19T15:50:42.795Z,92.20
2023-01-19T15:53:14.663Z,92.20
2023-01-19T15:55:43.728Z,92.20
2023-01-19T15:58:13.874Z,92.20
2023-01-19T16:00:41.812Z,92.20
2023-01-19T16:03:11.169Z,92.20
2023-01-19T16:05:43.183Z,92.20
2023-01-19T16:08:11.955Z,92.20
2023-01-19T16:10:39.954Z,92.20
2023-01-19T16:13:09.406Z,92.20
2023-01-19T16:15:37.464Z,92.20
2023-01-19T16:18:06.330Z,92.20
2023-01-19T16:20:34.079Z,92.20
2023-01-19T16:23:14.630Z,92.20
2023-01-19T16:25:43.112Z,92.10
2023-01-19T16:28:12.287Z,92.10
2023-01-19T16:30:40.080Z,92.10
2023-01-19T16:33:08.345Z,92.10
2023-01-19T16:35:36.148Z,92.00
2023-01-19T16:38:04.000Z,92.00
2023-01-19T16:40:31.839Z,92.00
2023-01-19T16:42:59.564Z,92.00
2023-01-19T16:45:28.692Z,92.00
2023-01-19T16:47:56.591Z,92.10
2023-01-19T16:50:24.291Z,92.00
2023-01-19T16:52:57.411Z,92.10
2023-01-19T16:55:25.117Z,92.10
2023-01-19T16:57:52.915Z,92.00
2023-01-19T17:00:21.372Z,92.00
2023-01-19T17:02:50.515Z,92.00
2023-01-19T17:05:18.363Z,92.00
2023-01-19T17:07:46.123Z,92.00
2023-01-19T17:10:14.154Z,92.00
2023-01-19T17:12:41.988Z,91.90
2023-01-19T17:15:10.501Z,91.90
2023-01-19T17:17:38.261Z,92.00
2023-01-19T17:20:08.838Z,92.00
2023-01-19T17:22:36.625Z,92.00
2023-01-19T17:25:04.571Z,92.00
2023-01-19T17:27:32.423Z,92.00
2023-01-19T17:30:00.165Z,92.00
2023-01-19T17:32:27.922Z,92.00
2023-01-19T17:34:55.853Z,92.00
2023-01-19T17:37:25.050Z,91.90
2023-01-19T17:39:52.793Z,92.00
2023-01-19T17:42:20.806Z,92.00
2023-01-19T17:44:48.609Z,91.90
2023-01-19T17:47:16.451Z,92.00
2023-01-19T17:49:44.214Z,92.00
2023-01-19T17:52:12.076Z,92.00
2023-01-19T17:54:41.185Z,92.00
2023-01-19T17:57:09.068Z,92.00
2023-01-19T17:59:37.700Z,91.90
2023-01-19T18:02:05.584Z,91.90
2023-01-19T18:04:33.322Z,91.90
2023-01-19T18:07:01.133Z,91.90
2023-01-19T18:09:29.055Z,92.00
2023-01-19T18:11:58.182Z,91.90
2023-01-19T18:14:26.099Z,91.90
2023-01-19T18:16:53.858Z,91.90
2023-01-19T18:19:22.892Z,91.90
2023-01-19T18:21:50.990Z,92.00
2023-01-19T18:24:19.074Z,91.90
2023-01-19T18:26:47.037Z,92.00
2023-01-19T18:29:16.688Z,91.90
2023-01-19T18:31:44.544Z,92.00
2023-01-19T18:34:12.917Z,91.90
2023-01-19T18:36:40.734Z,92.00
2023-01-19T18:39:09.400Z,92.00
2023-01-19T18:41:41.550Z,92.00
2023-01-19T18:44:09.782Z,92.00
2023-01-19T18:46:39.403Z,92.00
2023-01-19T18:49:07.374Z,92.00
2023-01-19T18:51:36.582Z,92.00
2023-01-19T18:54:04.727Z,92.00
2023-01-19T18:56:32.520Z,92.00
2023-01-19T18:59:00.364Z,91.90
2023-01-19T19:01:32.608Z,92.00
2023-01-19T19:04:02.526Z,91.90
2023-01-19T19:06:30.305Z,92.00
2023-01-19T19:08:59.245Z,91.90
2023-01-19T19:11:27.900Z,91.90
2023-01-19T19:13:57.788Z,91.90
2023-01-19T19:16:25.643Z,91.90
2023-01-19T19:18:53.682Z,91.90
2023-01-19T19:21:25.140Z,91.90
2023-01-19T19:23:54.122Z,91.90
2023-01-19T19:26:22.612Z,92.00
2023-01-19T19:28:50.323Z,92.00
2023-01-19T19:31:20.835Z,92.00
2023-01-19T19:33:51.057Z,92.00
2023-01-19T19:36:19.973Z,92.00
2023-01-19T19:38:49.691Z,92.00
2023-01-19T19:41:19.220Z,92.00
2023-01-19T19:43:47.223Z,92.00
2023-01-19T19:46:16.939Z,92.00
2023-01-19T19:48:45.037Z,91.90
2023-01-19T19:51:19.288Z,91.90
2023-01-19T19:53:51.540Z,91.90
2023-01-19T19:56:22.099Z,91.90
2023-01-19T19:58:50.343Z,91.90
2023-01-19T20:01:19.901Z,91.80
2023-01-19T20:03:48.276Z,91.90
2023-01-19T20:06:20.585Z,91.80
2023-01-19T20:08:50.599Z,91.90
2023-01-19T20:11:21.868Z,91.80
2023-01-19T20:13:50.812Z,91.90
2023-01-19T20:16:20.610Z,91.90
2023-01-19T20:18:51.388Z,91.90
2023-01-19T20:21:21.286Z,91.90
2023-01-19T20:23:52.882Z,91.90
2023-01-19T20:26:22.447Z,91.90
2023-01-19T20:28:50.118Z,91.90
2023-01-19T20:31:20.868Z,91.90
2023-01-19T20:33:50.333Z,91.90
2023-01-19T20:36:18.450Z,91.90
2023-01-19T20:38:46.666Z,91.90
2023-01-19T20:41:16.707Z,91.90
2023-01-19T20:43:44.450Z,91.90
2023-01-19T20:46:12.216Z,91.80
2023-01-19T20:48:40.118Z,91.80
2023-01-19T20:51:10.253Z,91.80
2023-01-19T20:53:39.371Z,91.80
2023-01-19T20:56:08.912Z,91.90
2023-01-19T20:58:38.821Z,91.90
2023-01-19T21:01:12.036Z,91.90
2023-01-19T21:03:40.011Z,91.90
2023-01-19T21:06:08.370Z,91.80
2023-01-19T21:08:36.565Z,91.80
2023-01-19T21:11:05.310Z,91.80
2023-01-19T21:13:33.308Z,91.80
2023-01-19T21:16:03.313Z,91.80
2023-01-19T21:18:31.121Z,91.90
2023-01-19T21:20:59.315Z,91.80
2023-01-19T21:23:28.310Z,91.80
2023-01-19T21:25:57.914Z,91.90
2023-01-19T21:28:26.241Z,91.90
2023-01-19T21:30:55.343Z,91.90
2023-01-19T21:33:25.135Z,91.90
2023-01-19T21:35:53.551Z,91.90
2023-01-19T21:38:22.569Z,91.90
2023-01-19T21:40:51.108Z,91.90
2023-01-19T21:43:19.875Z,91.90
2023-01-19T21:45:48.653Z,91.90
2023-01-19T21:48:16.927Z,91.80
2023-01-19T21:50:46.053Z,91.80
2023-01-19T21:53:14.012Z,91.80
2023-01-19T21:55:45.459Z,91.80
2023-01-19T21:58:13.185Z,91.80
2023-01-19T22:00:41.067Z,91.80
2023-01-19T22:03:09.025Z,91.80
2023-01-19T22:05:37.179Z,91.80
2023-01-19T22:08:06.879Z,91.80
2023-01-19T22:10:37.062Z,91.80
2023-01-19T22:13:06.541Z,91.80
2023-01-19T22:15:34.378Z,91.80
2023-01-19T22:18:02.263Z,91.80
2023-01-19T22:20:29.990Z,91.80
2023-01-19T22:22:57.784Z,91.80
2023-01-19T22:25:27.921Z,91.80
2023-01-19T22:27:55.697Z,91.80
2023-01-19T22:30:23.568Z,91.80
2023-01-19T22:32:53.034Z,91.80
2023-01-19T22:35:21.170Z,91.80
2023-01-19T22:37:48.994Z,91.80
2023-01-19T22:40:17.065Z,91.80
2023-01-19T22:42:47.789Z,91.80
2023-01-19T22:45:16.033Z,91.80
2023-01-19T22:47:43.962Z,91.80
2023-01-19T22:50:11.879Z,91.80
2023-01-19T22:52:39.603Z,91.70
2023-01-19T22:55:07.775Z,91.70
2023-01-19T22:57:36.562Z,91.80
2023-01-19T23:00:08.915Z,91.70
2023-01-19T23:02:36.831Z,91.80
2023-01-19T23:05:04.975Z,91.80
2023-01-19T23:07:32.724Z,91.70
2023-01-19T23:10:00.492Z,91.70
2023-01-19T23:12:28.234Z,91.70
2023-01-19T23:14:55.915Z,91.70
2023-01-19T23:17:25.040Z,91.70
2023-01-19T23:19:52.788Z,91.70
2023-01-19T23:22:20.472Z,91.70
2023-01-19T23:24:48.239Z,91.70
2023-01-19T23:27:15.959Z,91.80
2023-01-19T23:29:43.669Z,91.70
2023-01-19T23:32:11.407Z,91.70
2023-01-19T23:34:40.654Z,91.70
2023-01-19T23:37:08.424Z,91.70
2023-01-19T23:39:36.118Z,91.70
2023-01-19T23:42:05.162Z,91.70
2023-01-19T23:44:32.902Z,91.70
2023-01-19T23:47:00.654Z,91.70
2023-01-19T23:49:28.640Z,91.70
2023-01-19T23:51:57.691Z,91.70
2023-01-19T23:54:25.572Z,91.70
2023-01-19T23:56:53.300Z,91.70
2023-01-19T23:59:21.036Z,91.70
